createdAt,value
2022-08-08T00:03:20.406Z,3.00
2022-08-08T00:23:47.727Z,2.90
2022-08-08T00:26:29.157Z,2.20
2022-08-08T00:43:25.888Z,3.85
2022-08-08T00:46:25.722Z,3.15
2022-08-08T00:49:22.551Z,3.08
2022-08-08T01:00:10.570Z,2.53
2022-08-08T01:03:58.261Z,2.55
2022-08-08T01:05:59.501Z,2.63
2022-08-08T01:08:34.350Z,2.40
2022-08-08T01:11:11.056Z,2.45
2022-08-08T01:13:52.958Z,2.95
2022-08-08T01:16:35.045Z,2.70
2022-08-08T01:20:01.544Z,3.00
2022-08-08T01:22:34.819Z,2.95
2022-08-08T01:25:26.289Z,1.98
2022-08-08T01:28:06.203Z,2.33
2022-08-08T01:30:44.178Z,2.92
2022-08-08T01:33:42.971Z,2.53
2022-08-08T01:38:53.121Z,2.92
2022-08-08T01:41:34.248Z,2.78
2022-08-08T01:44:18.678Z,3.07
2022-08-08T01:47:05.959Z,2.90
2022-08-08T01:50:29.739Z,3.25
2022-08-08T01:54:19.832Z,2.80
2022-08-08T02:17:26.905Z,3.40
2022-08-08T02:21:01.970Z,4.00
2022-08-08T02:23:09.958Z,2.88
2022-08-08T02:26:10.796Z,3.00
2022-08-08T02:28:51.778Z,2.95
2022-08-08T02:31:24.594Z,3.53
2022-08-08T02:34:15.142Z,3.67
2022-08-08T02:37:52.241Z,2.97
2022-08-08T02:40:12.770Z,3.08
2022-08-08T02:44:38.438Z,3.17
2022-08-08T02:46:15.493Z,3.30
2022-08-08T02:49:02.881Z,3.35
2022-08-08T02:51:59.085Z,3.05
2022-08-08T03:02:30.550Z,2.40
2022-08-08T03:05:10.934Z,2.72
2022-08-08T03:07:57.967Z,3.25
2022-08-08T03:10:44.443Z,3.55
2022-08-08T03:15:54.119Z,2.65
2022-08-08T03:16:35.734Z,3.15
2022-08-08T03:19:17.896Z,3.15
2022-08-08T03:21:58.242Z,2.33
2022-08-08T03:24:28.920Z,3.22
2022-08-08T03:27:10.791Z,2.42
2022-08-08T03:29:55.758Z,2.60
2022-08-08T03:32:42.529Z,2.92
2022-08-08T03:35:22.444Z,3.22
2022-08-08T03:38:53.687Z,3.50
2022-08-08T03:40:38.213Z,3.22
2022-08-08T03:43:16.582Z,3.28
2022-08-08T03:46:07.145Z,2.70
2022-08-08T03:49:09.004Z,2.58
2022-08-08T03:51:26.463Z,2.90
2022-08-08T03:54:09.336Z,2.70
2022-08-08T03:56:36.946Z,2.92
2022-08-08T03:59:04.627Z,3.33
2022-08-08T04:02:23.034Z,2.45
2022-08-08T04:04:31.105Z,2.43
2022-08-08T04:07:01.415Z,2.72
2022-08-08T04:09:58.703Z,3.17
2022-08-08T04:12:17.014Z,2.92
2022-08-08T04:14:50.519Z,3.28
2022-08-08T04:17:45.760Z,3.28
2022-08-08T04:20:08.102Z,2.70
2022-08-08T04:22:36.112Z,2.80
2022-08-08T04:25:04.195Z,2.65
2022-08-08T04:28:03.253Z,3.08
2022-08-08T04:30:19.806Z,2.72
2022-08-08T04:32:50.433Z,2.03
2022-08-08T04:35:20.345Z,2.97
2022-08-08T04:37:51.014Z,2.67
2022-08-08T04:40:18.798Z,2.30
2022-08-08T04:42:56.849Z,2.30
2022-08-08T04:45:28.334Z,2.80
2022-08-08T04:47:57.812Z,3.17
2022-08-08T04:50:28.297Z,2.60
2022-08-08T04:53:05.169Z,3.13
2022-08-08T04:55:55.391Z,3.00
2022-08-08T04:58:24.351Z,2.33
2022-08-08T05:00:52.309Z,2.63
2022-08-08T05:04:11.282Z,2.40
2022-08-08T05:06:13.170Z,2.53
2022-08-08T05:08:44.838Z,2.15
2022-08-08T05:11:22.848Z,2.63
2022-08-08T05:13:57.658Z,2.45
2022-08-08T05:16:51.361Z,1.98
2022-08-08T05:20:11.495Z,2.25
2022-08-08T05:22:06.818Z,2.50
2022-08-08T05:24:34.876Z,3.25
2022-08-08T05:27:05.368Z,1.90
2022-08-08T05:29:36.055Z,3.17
2022-08-08T05:32:07.702Z,2.35
2022-08-08T05:34:36.452Z,2.53
2022-08-08T05:37:07.501Z,2.65
2022-08-08T05:39:45.748Z,2.50
2022-08-08T05:42:15.814Z,2.58
2022-08-08T05:44:49.033Z,2.10
2022-08-08T05:47:21.086Z,2.58
2022-08-08T05:49:53.911Z,2.90
2022-08-08T05:52:32.171Z,2.38
2022-08-08T05:55:09.583Z,2.33
2022-08-08T05:58:04.145Z,2.80
2022-08-08T06:00:31.251Z,2.53
2022-08-08T06:03:17.584Z,2.50
2022-08-08T06:05:58.921Z,3.08
2022-08-08T06:08:33.021Z,1.73
2022-08-08T06:11:03.494Z,3.03
2022-08-08T06:13:36.376Z,2.03
2022-08-08T06:16:12.167Z,2.58
2022-08-08T06:18:41.063Z,2.65
2022-08-08T06:21:28.627Z,1.70
2022-08-08T06:24:03.698Z,2.70
2022-08-08T06:26:50.311Z,2.90
2022-08-08T06:29:48.713Z,2.42
2022-08-08T06:32:14.977Z,2.25
2022-08-08T06:34:52.367Z,1.73
2022-08-08T06:37:27.903Z,2.40
2022-08-08T06:39:57.587Z,2.28
2022-08-08T06:42:30.166Z,2.38
2022-08-08T06:44:57.939Z,2.20
2022-08-08T06:47:31.712Z,3.33
2022-08-08T06:50:04.232Z,2.72
2022-08-08T06:52:32.832Z,2.72
2022-08-08T06:55:01.958Z,2.35
2022-08-08T06:57:54.702Z,2.83
2022-08-08T07:00:17.548Z,2.78
2022-08-08T07:03:00.134Z,2.47
2022-08-08T07:05:40.212Z,3.55
2022-08-08T07:08:19.707Z,2.38
2022-08-08T07:10:50.299Z,3.28
2022-08-08T07:13:19.074Z,2.45
2022-08-08T07:16:11.757Z,2.55
2022-08-08T07:18:57.710Z,2.78
2022-08-08T07:21:31.134Z,2.25
2022-08-08T07:24:05.402Z,2.83
2022-08-08T07:26:36.067Z,2.30
2022-08-08T07:29:05.930Z,2.22
2022-08-08T07:31:36.858Z,2.38
2022-08-08T07:34:08.887Z,2.42
2022-08-08T07:36:48.182Z,2.25
2022-08-08T07:39:29.774Z,2.47
2022-08-08T07:42:14.105Z,1.88
2022-08-08T07:44:48.190Z,2.65
2022-08-08T07:47:18.854Z,3.45
2022-08-08T07:49:57.510Z,2.72
2022-08-08T07:52:26.964Z,2.85
2022-08-08T07:55:06.397Z,2.97
2022-08-08T07:57:36.224Z,2.75
2022-08-08T08:00:16.332Z,2.88
2022-08-08T08:03:04.920Z,1.95
2022-08-08T08:05:34.052Z,2.13
2022-08-08T08:08:08.668Z,2.30
2022-08-08T08:10:37.225Z,2.03
2022-08-08T08:13:25.710Z,2.33
2022-08-08T08:18:51.758Z,2.58
2022-08-08T08:21:44.360Z,2.38
2022-08-08T08:24:11.652Z,2.83
2022-08-08T08:26:52.977Z,2.50
2022-08-08T08:29:22.635Z,2.40
2022-08-08T08:31:55.296Z,2.42
2022-08-08T08:34:32.134Z,2.25
2022-08-08T08:37:03.341Z,2.20
2022-08-08T08:39:39.173Z,3.05
2022-08-08T08:42:35.080Z,3.05
2022-08-08T08:45:21.281Z,2.58
2022-08-08T08:47:55.027Z,2.72
2022-08-08T08:50:33.472Z,3.08
2022-08-08T08:53:54.801Z,3.35
2022-08-08T08:56:02.571Z,2.65
2022-08-08T08:58:50.186Z,2.95
2022-08-08T09:01:20.729Z,3.20
2022-08-08T09:03:50.866Z,3.30
2022-08-08T09:06:33.753Z,2.30
2022-08-08T09:09:26.693Z,3.25
2022-08-08T09:12:08.036Z,2.75
2022-08-08T09:14:42.706Z,3.28
2022-08-08T09:17:18.018Z,2.85
2022-08-08T09:22:00.134Z,3.10
2022-08-08T09:22:39.440Z,3.03
2022-08-08T09:25:09.774Z,3.00
2022-08-08T09:27:41.791Z,3.88
2022-08-08T09:30:26.729Z,3.13
2022-08-08T09:33:13.039Z,2.80
2022-08-08T09:35:49.171Z,3.08
2022-08-08T09:38:52.941Z,2.60
2022-08-08T09:42:14.030Z,3.58
2022-08-08T09:44:50.438Z,2.83
2022-08-08T09:48:04.847Z,3.22
2022-08-08T09:50:13.852Z,3.28
2022-08-08T09:52:59.270Z,2.85
2022-08-08T09:56:04.348Z,3.17
2022-08-08T09:58:27.973Z,3.60
2022-08-08T10:01:15.392Z,3.00
2022-08-08T10:04:04.903Z,3.63
2022-08-08T10:06:35.992Z,4.25
2022-08-08T10:09:05.899Z,2.67
2022-08-08T10:12:26.859Z,3.28
2022-08-08T10:14:38.589Z,3.72
2022-08-08T10:17:56.899Z,3.42
2022-08-08T10:20:00.379Z,3.30
2022-08-08T10:25:01.365Z,3.90
2022-08-08T10:27:34.602Z,3.13
2022-08-08T10:30:03.981Z,3.60
2022-08-08T10:32:48.756Z,3.88
2022-08-08T10:35:20.443Z,3.30
2022-08-08T10:38:08.692Z,3.80
2022-08-08T10:40:39.130Z,4.28
2022-08-08T10:43:10.088Z,4.85
2022-08-08T10:45:55.974Z,3.92
2022-08-08T10:48:56.225Z,4.20
2022-08-08T10:51:31.094Z,3.50
2022-08-08T10:54:10.439Z,4.45
2022-08-08T10:56:43.085Z,4.93
2022-08-08T10:59:14.253Z,4.22
2022-08-08T11:01:54.376Z,5.32
2022-08-08T11:04:29.919Z,3.95
2022-08-08T11:07:06.713Z,3.60
2022-08-08T11:09:36.231Z,4.20
2022-08-08T11:12:13.306Z,4.68
2022-08-08T11:14:55.113Z,5.30
2022-08-08T11:17:58.227Z,4.32
2022-08-08T11:20:13.734Z,3.75
2022-08-08T11:22:41.618Z,4.35
2022-08-08T11:25:14.348Z,3.38
2022-08-08T11:27:44.543Z,3.45
2022-08-08T11:30:24.479Z,4.03
2022-08-08T11:32:57.718Z,3.35
2022-08-08T11:35:38.236Z,2.63
2022-08-08T11:38:35.329Z,3.95
2022-08-08T11:40:58.340Z,2.97
2022-08-08T11:43:38.979Z,2.60
2022-08-08T11:46:13.333Z,3.15
2022-08-08T11:48:47.692Z,2.53
2022-08-08T11:51:29.564Z,2.80
2022-08-08T11:54:05.262Z,2.28
2022-08-08T11:56:56.148Z,2.55
2022-08-08T11:59:58.451Z,2.58
2022-08-08T12:02:35.136Z,2.47
2022-08-08T12:05:05.669Z,2.63
2022-08-08T12:07:51.912Z,2.75
2022-08-08T12:10:21.240Z,2.35
2022-08-08T12:12:49.500Z,1.88
2022-08-08T12:15:28.306Z,2.28
2022-08-08T12:17:56.029Z,1.60
2022-08-08T12:20:23.834Z,3.20
2022-08-08T12:22:53.248Z,2.53
2022-08-08T12:25:31.001Z,3.05
2022-08-08T12:28:15.644Z,1.67
2022-08-08T12:30:47.844Z,2.78
2022-08-08T13:43:37.485Z,5.32
2022-08-08T14:13:01.204Z,5.18
2022-08-08T14:15:39.864Z,5.80
2022-08-08T14:18:36.892Z,4.43
2022-08-08T14:21:08.160Z,5.35
2022-08-08T14:24:04.402Z,5.32
2022-08-08T14:26:33.336Z,3.33
2022-08-08T14:29:06.046Z,5.53
2022-08-08T14:32:10.762Z,5.05
2022-08-08T14:34:37.014Z,6.57
2022-08-08T14:37:08.114Z,6.38
2022-08-08T14:40:06.190Z,6.68
2022-08-08T14:42:54.611Z,7.03
2022-08-08T14:46:01.268Z,6.57
2022-08-08T14:48:27.354Z,6.35
2022-08-08T14:51:06.468Z,9.38
2022-08-08T14:53:54.540Z,6.60
2022-08-08T14:56:24.998Z,7.15
2022-08-08T18:57:19.796Z,6.18
2022-08-08T18:59:50.245Z,6.57
2022-08-08T19:02:27.738Z,6.57
2022-08-08T19:04:56.922Z,6.47
2022-08-08T19:07:30.034Z,6.85
2022-08-08T19:10:14.888Z,6.63
2022-08-08T19:12:44.815Z,6.97
2022-08-08T19:15:23.566Z,7.38
2022-08-08T19:18:30.883Z,6.95
2022-08-08T19:20:40.614Z,7.70
2022-08-08T19:36:33.574Z,6.97
2022-08-08T19:39:01.203Z,6.72
2022-08-08T20:06:13.567Z,6.80
2022-08-08T20:08:32.113Z,6.90
2022-08-08T20:11:00.623Z,6.10
2022-08-08T20:14:31.301Z,6.18
2022-08-08T20:16:16.296Z,6.88
2022-08-08T20:18:52.487Z,6.05
2022-08-08T20:21:23.328Z,5.70
2022-08-08T20:23:54.167Z,5.95
2022-08-08T20:26:27.271Z,6.88
2022-08-08T20:28:55.353Z,6.22
2022-08-08T20:31:23.541Z,5.00
2022-08-08T20:34:30.572Z,1.60
2022-08-08T20:36:43.612Z,2.70
2022-08-08T20:39:11.791Z,2.47
2022-08-08T20:41:39.362Z,1.70
2022-08-08T20:44:09.172Z,1.30
2022-08-08T20:46:37.816Z,0.60
2022-08-08T20:49:05.421Z,0.57
2022-08-08T20:51:33.267Z,0.90
2022-08-08T20:54:09.517Z,0.50
2022-08-08T20:57:05.767Z,0.90
2022-08-08T20:59:29.725Z,0.40
2022-08-08T21:02:05.992Z,0.60
2022-08-08T21:04:36.926Z,1.08
2022-08-08T21:07:08.491Z,0.55
2022-08-08T21:10:02.148Z,0.65
2022-08-08T21:12:32.459Z,0.70
2022-08-08T21:15:06.532Z,0.60
2022-08-08T21:17:36.255Z,1.77
2022-08-08T21:20:04.888Z,0.63
2022-08-08T21:22:32.592Z,0.43
2022-08-08T21:25:00.210Z,0.70
2022-08-08T21:28:06.143Z,0.50
2022-08-08T21:30:21.850Z,0.73
2022-08-08T21:32:52.490Z,1.17
2022-08-08T21:36:16.155Z,0.60
2022-08-08T21:38:17.176Z,0.80
2022-08-08T21:40:56.290Z,0.65
2022-08-08T21:43:33.317Z,0.75
2022-08-08T21:48:02.551Z,0.85
2022-08-08T21:48:55.173Z,0.77
2022-08-08T21:54:16.752Z,1.05
2022-08-08T21:54:31.172Z,0.68
2022-08-08T21:57:02.889Z,0.88
2022-08-08T22:00:01.396Z,0.90
2022-08-08T22:02:23.553Z,0.98
2022-08-08T22:04:59.126Z,0.73
2022-08-08T22:07:39.712Z,1.88
2022-08-08T22:10:18.544Z,2.13
2022-08-08T22:13:16.944Z,0.90
2022-08-08T22:15:58.542Z,0.60
2022-08-08T22:18:28.957Z,0.65
2022-08-08T22:20:58.273Z,0.85
2022-08-08T22:23:32.766Z,0.60
2022-08-08T22:26:26.882Z,0.60
2022-08-08T22:29:03.970Z,1.00
2022-08-08T22:31:35.218Z,0.82
2022-08-08T22:34:12.772Z,0.95
2022-08-08T22:36:42.655Z,1.00
2022-08-08T22:39:19.231Z,1.40
2022-08-08T22:41:49.413Z,1.27
2022-08-08T22:44:17.664Z,1.38
2022-08-08T22:46:45.880Z,1.17
2022-08-08T22:49:14.058Z,1.30
2022-08-08T22:51:47.913Z,2.03
2022-08-08T22:54:31.290Z,1.33
2022-08-08T22:57:11.359Z,1.20
2022-08-08T22:59:48.601Z,1.67
2022-08-08T23:02:29.289Z,1.23
2022-08-08T23:04:57.798Z,1.75
2022-08-08T23:07:51.162Z,1.23
2022-08-08T23:12:48.864Z,1.63
2022-08-08T23:16:41.311Z,1.52
2022-08-08T23:18:11.655Z,1.73
2022-08-08T23:20:41.116Z,2.45
2022-08-08T23:23:10.817Z,1.15
2022-08-08T23:25:47.820Z,1.70
2022-08-08T23:28:17.680Z,2.20
2022-08-08T23:30:46.880Z,1.90
2022-08-08T23:33:21.210Z,1.48
2022-08-08T23:36:07.901Z,1.58
2022-08-08T23:38:41.718Z,1.60
2022-08-08T23:41:23.189Z,1.98
2022-08-08T23:43:56.739Z,2.08
2022-08-08T23:49:06.332Z,1.20
2022-08-08T23:49:15.374Z,1.55
2022-08-08T23:52:04.363Z,1.73
2022-08-08T23:54:42.440Z,2.45
2022-08-08T23:57:26.678Z,1.67
